createdAt,value
2019-01-14T00:01:36.501Z,7.70
2019-01-14T00:04:02.484Z,7.80
2019-01-14T00:06:28.461Z,7.70
2019-01-14T00:08:54.481Z,7.80
2019-01-14T00:11:20.486Z,7.60
2019-01-14T00:13:46.494Z,7.60
2019-01-14T00:16:12.502Z,7.70
2019-01-14T00:18:38.545Z,7.70
2019-01-14T00:21:04.610Z,7.80
2019-01-14T00:23:30.596Z,7.90
2019-01-14T00:25:56.600Z,7.90
2019-01-14T00:28:22.630Z,7.90
2019-01-14T00:30:48.644Z,7.90
2019-01-14T00:33:14.605Z,7.90
2019-01-14T00:35:41.337Z,8.00
2019-01-14T00:38:08.343Z,7.90
2019-01-14T00:40:34.319Z,7.90
2019-01-14T00:43:01.055Z,7.90
2019-01-14T00:45:27.053Z,7.90
2019-01-14T00:47:53.048Z,7.90
2019-01-14T00:50:19.021Z,7.90
2019-01-14T00:52:45.012Z,7.80
2019-01-14T00:55:10.986Z,7.80
2019-01-14T00:57:36.971Z,7.80
2019-01-14T01:00:05.779Z,7.90
2019-01-14T01:02:31.762Z,8.00
2019-01-14T01:04:57.740Z,8.10
2019-01-14T01:07:23.749Z,8.10
2019-01-14T01:09:50.488Z,8.20
2019-01-14T01:12:16.485Z,8.20
2019-01-14T01:14:42.472Z,8.00
2019-01-14T01:17:08.468Z,8.10
2019-01-14T01:19:34.458Z,8.00
2019-01-14T01:22:00.458Z,8.00
2019-01-14T01:24:26.436Z,7.90
2019-01-14T01:26:52.466Z,7.80
2019-01-14T01:29:18.453Z,7.80
2019-01-14T01:31:45.184Z,7.80
2019-01-14T01:34:11.281Z,7.80
2019-01-14T01:36:37.273Z,7.90
2019-01-14T01:39:03.266Z,7.90
2019-01-14T01:41:29.999Z,8.00
2019-01-14T01:43:55.999Z,8.00
2019-01-14T01:46:21.989Z,8.10
2019-01-14T01:48:47.973Z,8.20
2019-01-14T01:51:18.533Z,8.20
2019-01-14T01:53:44.533Z,8.10
2019-01-14T01:56:10.526Z,8.20
2019-01-14T01:58:37.273Z,8.50
2019-01-14T02:01:03.981Z,8.20
2019-01-14T02:03:29.985Z,8.20
2019-01-14T02:05:55.976Z,8.10
2019-01-14T02:08:22.095Z,7.80
2019-01-14T02:10:48.835Z,7.90
2019-01-14T02:13:14.822Z,7.90
2019-01-14T02:15:40.822Z,7.80
2019-01-14T02:18:06.800Z,7.80
2019-01-14T02:20:32.814Z,7.80
2019-01-14T02:22:58.838Z,7.90
2019-01-14T02:25:24.841Z,7.80
2019-01-14T02:27:50.945Z,7.80
2019-01-14T02:30:16.930Z,7.70
2019-01-14T02:32:42.918Z,7.90
2019-01-14T02:35:08.916Z,7.80
2019-01-14T02:37:34.912Z,7.90
2019-01-14T02:40:00.930Z,7.90
2019-01-14T02:42:26.931Z,8.00
2019-01-14T02:44:52.924Z,7.90
2019-01-14T02:47:18.925Z,7.90
2019-01-14T02:49:44.942Z,8.00
2019-01-14T02:52:10.920Z,8.00
2019-01-14T02:54:36.966Z,8.10
2019-01-14T02:57:02.997Z,8.10
2019-01-14T02:59:28.992Z,8.10
2019-01-14T03:01:55.032Z,8.20
2019-01-14T03:04:21.054Z,8.20
2019-01-14T03:06:47.071Z,8.00
2019-01-14T03:09:13.092Z,8.20
2019-01-14T03:11:39.130Z,8.10
2019-01-14T03:14:05.126Z,8.30
2019-01-14T03:16:31.131Z,8.10
2019-01-14T03:18:57.148Z,8.10
2019-01-14T03:21:23.151Z,8.20
2019-01-14T03:23:49.174Z,8.00
2019-01-14T03:26:15.937Z,7.60
2019-01-14T03:28:42.129Z,7.60
2019-01-14T03:31:08.877Z,7.60
2019-01-14T03:33:35.630Z,7.60
2019-01-14T03:36:01.668Z,7.60
2019-01-14T03:38:27.678Z,7.50
2019-01-14T03:40:53.732Z,7.60
2019-01-14T03:43:26.596Z,7.50
2019-01-14T03:45:52.635Z,7.50
2019-01-14T03:48:18.620Z,7.30
2019-01-14T03:50:45.347Z,7.50
2019-01-14T03:53:11.379Z,7.50
2019-01-14T03:55:38.142Z,7.40
2019-01-14T03:58:04.142Z,7.40
2019-01-14T04:00:30.921Z,7.40
2019-01-14T04:02:56.928Z,7.40
2019-01-14T04:05:22.934Z,7.50
2019-01-14T04:07:49.848Z,7.40
2019-01-14T04:10:15.828Z,7.40
2019-01-14T04:12:41.891Z,7.60
2019-01-14T04:15:07.895Z,7.70
2019-01-14T04:17:33.894Z,7.50
2019-01-14T04:20:00.269Z,7.80
2019-01-14T04:22:26.290Z,7.80
2019-01-14T04:24:52.297Z,7.90
2019-01-14T04:27:18.314Z,7.80
2019-01-14T04:29:44.324Z,7.70
2019-01-14T04:32:10.495Z,7.70
2019-01-14T04:34:36.487Z,7.80
2019-01-14T04:37:02.678Z,7.80
2019-01-14T04:39:29.427Z,7.90
2019-01-14T04:41:56.194Z,7.80
2019-01-14T04:44:22.217Z,7.80
2019-01-14T04:46:48.253Z,7.60
2019-01-14T04:49:14.481Z,7.70
2019-01-14T04:51:40.479Z,7.60
2019-01-14T04:54:06.491Z,7.50
2019-01-14T04:56:33.220Z,7.70
2019-01-14T04:58:59.955Z,7.40
2019-01-14T05:01:26.704Z,7.60
2019-01-14T05:03:53.484Z,7.40
2019-01-14T05:06:20.211Z,7.50
2019-01-14T05:08:46.221Z,7.50
2019-01-14T05:11:12.996Z,7.40
2019-01-14T05:13:38.985Z,7.40
2019-01-14T05:16:05.732Z,7.30
2019-01-14T05:18:32.515Z,7.40
2019-01-14T05:20:58.542Z,7.40
2019-01-14T05:23:24.564Z,7.50
2019-01-14T05:25:50.611Z,7.40
2019-01-14T05:28:16.598Z,7.30
2019-01-14T05:30:42.631Z,7.30
2019-01-14T05:33:08.630Z,7.30
2019-01-14T05:35:34.643Z,7.30
2019-01-14T05:38:00.640Z,7.20
2019-01-14T05:40:27.390Z,7.20
2019-01-14T05:42:54.151Z,7.40
2019-01-14T05:45:20.155Z,7.40
2019-01-14T05:47:46.891Z,7.50
2019-01-14T05:50:12.898Z,7.40
2019-01-14T05:52:38.922Z,7.50
2019-01-14T05:55:04.941Z,7.50
2019-01-14T05:57:30.941Z,7.50
2019-01-14T05:59:56.950Z,7.50
2019-01-14T06:02:23.003Z,7.50
2019-01-14T06:04:49.003Z,7.50
2019-01-14T06:07:15.027Z,7.60
2019-01-14T06:09:41.094Z,7.60
2019-01-14T06:12:07.095Z,7.50
2019-01-14T06:14:33.113Z,7.60
2019-01-14T06:16:59.114Z,7.60
2019-01-14T06:19:25.134Z,7.60
2019-01-14T06:21:51.145Z,7.50
2019-01-14T06:24:17.155Z,7.60
2019-01-14T06:26:43.884Z,7.60
2019-01-14T06:29:09.902Z,7.60
2019-01-14T06:31:35.867Z,7.60
2019-01-14T06:34:01.864Z,7.60
2019-01-14T06:36:27.865Z,7.60
2019-01-14T06:38:53.989Z,7.60
2019-01-14T06:41:20.002Z,7.70
2019-01-14T06:43:46.008Z,7.70
2019-01-14T06:46:12.026Z,7.30
2019-01-14T06:48:38.034Z,7.20
2019-01-14T06:51:04.048Z,7.10
2019-01-14T06:53:30.068Z,6.80
2019-01-14T06:55:56.050Z,6.80
2019-01-14T06:58:22.058Z,6.80
2019-01-14T07:00:48.053Z,6.60
2019-01-14T07:03:14.051Z,6.90
2019-01-14T07:05:40.050Z,7.00
2019-01-14T07:08:06.403Z,6.90
2019-01-14T07:10:32.415Z,7.10
2019-01-14T07:12:58.403Z,7.00
2019-01-14T07:15:24.388Z,7.10
2019-01-14T07:17:50.395Z,7.10
2019-01-14T07:20:16.366Z,7.20
2019-01-14T07:22:42.359Z,7.10
2019-01-14T07:25:08.341Z,7.20
2019-01-14T07:27:34.317Z,7.20
2019-01-14T07:30:00.300Z,7.10
2019-01-14T07:32:26.304Z,6.90
2019-01-14T07:34:52.290Z,6.80
2019-01-14T07:37:18.264Z,6.70
2019-01-14T07:39:44.256Z,6.60
2019-01-14T07:42:10.227Z,6.70
2019-01-14T07:44:36.223Z,6.60
2019-01-14T07:47:02.212Z,6.60
2019-01-14T07:49:28.189Z,6.70
2019-01-14T07:51:54.193Z,6.70
2019-01-14T07:54:20.188Z,6.70
2019-01-14T07:56:46.186Z,6.70
2019-01-14T07:59:12.223Z,6.90
2019-01-14T08:01:38.237Z,6.90
2019-01-14T08:04:04.246Z,6.90
2019-01-14T08:06:30.243Z,7.00
2019-01-14T08:08:56.223Z,7.10
2019-01-14T08:11:22.230Z,7.10
2019-01-14T08:13:48.272Z,7.10
2019-01-14T08:16:14.252Z,7.10
2019-01-14T08:18:40.235Z,7.10
2019-01-14T08:21:06.239Z,7.20
2019-01-14T08:23:32.235Z,7.20
2019-01-14T08:25:58.242Z,7.30
2019-01-14T08:28:24.262Z,7.30
2019-01-14T08:30:50.267Z,7.30
2019-01-14T08:33:16.267Z,7.30
2019-01-14T08:35:42.271Z,7.30
2019-01-14T08:38:08.289Z,7.30
2019-01-14T08:40:34.286Z,7.30
2019-01-14T08:43:00.298Z,7.20
2019-01-14T08:45:27.016Z,7.30
2019-01-14T08:47:53.039Z,7.20
2019-01-14T08:50:19.081Z,7.30
2019-01-14T08:52:45.054Z,7.30
2019-01-14T08:55:11.052Z,7.30
2019-01-14T08:57:37.035Z,7.20
2019-01-14T09:00:04.988Z,7.00
2019-01-14T09:02:30.979Z,7.10
2019-01-14T09:04:56.975Z,7.10
2019-01-14T09:07:22.995Z,7.00
2019-01-14T09:09:48.979Z,6.90
2019-01-14T09:12:15.019Z,7.00
2019-01-14T09:14:41.031Z,7.20
2019-01-14T09:17:07.200Z,7.40
2019-01-14T09:19:40.389Z,7.40
2019-01-14T09:22:07.115Z,7.30
2019-01-14T09:24:33.099Z,7.30
2019-01-14T09:26:59.112Z,7.20
2019-01-14T09:29:25.127Z,7.30
2019-01-14T09:31:51.200Z,7.30
2019-01-14T09:34:17.195Z,7.10
2019-01-14T09:36:43.195Z,7.20
2019-01-14T09:39:09.220Z,7.50
2019-01-14T09:41:35.205Z,7.50
2019-01-14T09:44:01.943Z,7.70
2019-01-14T09:46:27.956Z,7.70
2019-01-14T09:48:53.941Z,7.70
2019-01-14T09:51:19.950Z,7.70
2019-01-14T09:53:45.957Z,7.70
2019-01-14T09:56:11.964Z,7.50
2019-01-14T09:58:37.967Z,7.40
2019-01-14T10:01:03.975Z,7.30
2019-01-14T10:03:30.001Z,7.30
2019-01-14T10:05:56.040Z,7.30
2019-01-14T10:08:22.067Z,7.30
2019-01-14T10:10:48.126Z,7.30
2019-01-14T10:13:14.120Z,7.30
2019-01-14T10:15:50.123Z,7.20
2019-01-14T10:18:16.107Z,7.30
2019-01-14T10:20:42.109Z,7.30
2019-01-14T10:23:08.129Z,7.30
2019-01-14T10:25:34.168Z,7.30
2019-01-14T10:28:00.179Z,7.40
2019-01-14T10:30:26.178Z,7.40
2019-01-14T10:32:52.157Z,7.40
2019-01-14T10:35:18.148Z,7.70
2019-01-14T10:37:44.160Z,8.00
2019-01-14T10:40:10.146Z,8.20
2019-01-14T10:42:36.129Z,8.30
2019-01-14T10:45:02.113Z,8.20
2019-01-14T10:47:28.152Z,8.00
2019-01-14T10:49:54.128Z,8.00
2019-01-14T10:52:20.115Z,7.90
2019-01-14T10:54:46.096Z,7.80
2019-01-14T10:57:12.164Z,8.00
2019-01-14T10:59:38.180Z,8.00
2019-01-14T11:02:04.186Z,8.10
2019-01-14T11:04:30.207Z,8.00
2019-01-14T11:06:56.195Z,8.10
2019-01-14T11:09:22.202Z,8.10
2019-01-14T11:11:48.175Z,8.10
2019-01-14T11:14:14.195Z,7.90
2019-01-14T11:16:40.207Z,7.90
2019-01-14T11:19:06.196Z,7.90
2019-01-14T11:21:32.182Z,7.80
2019-01-14T11:23:58.180Z,7.70
2019-01-14T11:26:24.224Z,7.80
2019-01-14T11:28:50.233Z,7.90
2019-01-14T11:31:16.190Z,7.70
2019-01-14T11:33:42.197Z,7.80
2019-01-14T11:36:08.199Z,7.90
2019-01-14T11:38:38.023Z,8.00
2019-01-14T11:41:04.067Z,8.00
2019-01-14T11:43:30.082Z,7.90
2019-01-14T11:45:56.071Z,8.00
2019-01-14T11:48:22.815Z,7.90
2019-01-14T11:50:48.861Z,7.90
2019-01-14T11:53:14.856Z,7.80
2019-01-14T11:55:40.863Z,7.80
2019-01-14T11:58:07.615Z,7.80
2019-01-14T12:00:36.896Z,7.70
2019-01-14T12:03:00.364Z,7.70
2019-01-14T12:05:26.379Z,7.80
2019-01-14T12:07:52.352Z,7.80
2019-01-14T12:10:18.319Z,7.90
2019-01-14T12:12:44.324Z,7.90
2019-01-14T12:15:13.164Z,7.90
2019-01-14T12:17:39.134Z,8.00
2019-01-14T12:20:05.126Z,8.20
2019-01-14T12:22:31.138Z,8.30
2019-01-14T12:24:57.123Z,8.10
2019-01-14T12:27:23.132Z,8.40
2019-01-14T12:29:49.104Z,8.60
2019-01-14T12:32:15.094Z,8.70
2019-01-14T12:34:41.062Z,8.70
2019-01-14T12:37:07.074Z,8.70
2019-01-14T12:39:33.080Z,8.70
2019-01-14T12:41:59.069Z,8.70
2019-01-14T12:44:25.071Z,8.80
2019-01-14T12:46:51.087Z,8.90
2019-01-14T12:49:17.066Z,8.70
2019-01-14T12:51:43.035Z,8.70
2019-01-14T12:54:09.051Z,8.40
2019-01-14T12:56:35.041Z,8.70
2019-01-14T12:59:01.813Z,8.30
2019-01-14T13:01:27.825Z,8.20
2019-01-14T13:03:54.566Z,8.30
2019-01-14T13:06:21.306Z,8.30
2019-01-14T13:08:47.303Z,8.30
2019-01-14T13:11:13.303Z,8.10
2019-01-14T13:13:39.285Z,8.30
2019-01-14T13:16:05.277Z,8.10
2019-01-14T13:18:31.272Z,8.10
2019-01-14T13:20:57.262Z,8.30
2019-01-14T13:23:23.346Z,8.20
2019-01-14T13:25:49.333Z,8.00
2019-01-14T13:28:15.378Z,8.10
2019-01-14T13:30:41.381Z,8.00
2019-01-14T13:33:07.354Z,8.40
2019-01-14T13:35:33.364Z,8.40
2019-01-14T13:37:59.356Z,8.50
2019-01-14T13:40:25.398Z,8.40
2019-01-14T13:42:51.382Z,8.50
2019-01-14T13:45:17.366Z,8.20
2019-01-14T13:47:43.362Z,8.00
2019-01-14T13:50:09.346Z,7.80
2019-01-14T13:52:35.351Z,8.00
2019-01-14T13:55:02.086Z,8.00
2019-01-14T13:57:28.085Z,8.00
2019-01-14T13:59:54.110Z,8.00
2019-01-14T14:02:20.113Z,8.10
2019-01-14T14:04:46.115Z,7.90
2019-01-14T14:07:12.111Z,7.80
2019-01-14T14:09:41.332Z,7.80
2019-01-14T14:12:04.184Z,7.70
2019-01-14T14:14:30.204Z,7.60
2019-01-14T14:16:56.223Z,7.70
2019-01-14T14:19:22.202Z,7.50
2019-01-14T14:21:48.190Z,7.70
2019-01-14T14:24:14.175Z,7.60
2019-01-14T14:26:40.155Z,7.40
2019-01-14T14:29:06.177Z,7.30
2019-01-14T14:31:32.170Z,7.20
2019-01-14T14:33:58.218Z,7.30
2019-01-14T14:36:24.212Z,7.10
2019-01-14T14:38:50.199Z,6.90
2019-01-14T14:41:16.188Z,7.00
2019-01-14T14:43:42.169Z,7.10
2019-01-14T14:46:08.179Z,7.40
2019-01-14T14:48:34.166Z,7.70
2019-01-14T14:51:00.183Z,7.60
2019-01-14T14:53:26.179Z,7.70
2019-01-14T14:55:52.165Z,7.70
2019-01-14T14:58:18.158Z,7.70
2019-01-14T15:00:44.185Z,7.70
2019-01-14T15:03:10.188Z,7.50
2019-01-14T15:05:36.258Z,7.40
2019-01-14T15:08:02.274Z,7.20
2019-01-14T15:10:28.255Z,6.90
2019-01-14T15:12:54.288Z,7.00
2019-01-14T15:15:20.276Z,7.00
2019-01-14T15:17:46.295Z,6.70
2019-01-14T15:20:12.333Z,6.80
2019-01-14T15:22:38.328Z,6.70
2019-01-14T15:25:04.319Z,6.80
2019-01-14T15:27:30.314Z,6.70
2019-01-14T15:29:56.307Z,6.70
2019-01-14T15:32:22.297Z,6.60
2019-01-14T15:34:49.454Z,6.70
2019-01-14T15:37:14.319Z,6.60
2019-01-14T15:39:40.339Z,6.50
2019-01-14T15:42:06.365Z,6.40
2019-01-14T15:44:32.379Z,6.40
2019-01-14T15:46:58.355Z,6.30
2019-01-14T15:49:24.390Z,6.30
2019-01-14T15:51:50.379Z,6.30
2019-01-14T15:54:16.378Z,6.10
2019-01-14T15:56:42.394Z,6.00
2019-01-14T15:59:08.422Z,6.00
2019-01-14T16:01:34.417Z,5.90
2019-01-14T16:04:00.433Z,5.90
2019-01-14T16:06:26.404Z,5.80
2019-01-14T16:08:52.425Z,5.70
2019-01-14T16:11:18.449Z,5.80
2019-01-14T16:13:44.451Z,5.60
2019-01-14T16:16:10.507Z,5.50
2019-01-14T16:18:36.525Z,5.60
2019-01-14T16:21:02.507Z,5.60
2019-01-14T16:23:28.601Z,5.60
2019-01-14T16:25:54.644Z,5.50
2019-01-14T16:28:20.659Z,5.60
2019-01-14T16:30:46.650Z,5.50
2019-01-14T16:33:12.678Z,5.40
2019-01-14T16:35:38.769Z,5.50
2019-01-14T16:38:04.781Z,5.50
2019-01-14T16:40:30.791Z,5.40
2019-01-14T16:42:57.007Z,5.20
2019-01-14T16:45:23.202Z,5.30
2019-01-14T16:47:49.490Z,5.10
2019-01-14T16:50:15.487Z,5.00
2019-01-14T16:52:41.488Z,5.10
2019-01-14T16:55:07.530Z,5.00
2019-01-14T16:57:33.520Z,4.80
2019-01-14T17:00:00.397Z,4.90
2019-01-14T17:02:26.387Z,4.90
2019-01-14T17:04:52.392Z,4.80
2019-01-14T17:07:18.421Z,4.80
2019-01-14T17:09:44.399Z,4.90
2019-01-14T17:12:10.370Z,4.70
2019-01-14T17:14:36.407Z,4.70
2019-01-14T17:17:02.422Z,4.80
2019-01-14T17:19:28.414Z,4.80
2019-01-14T17:21:55.181Z,5.00
2019-01-14T17:24:21.231Z,5.00
2019-01-14T17:26:47.226Z,5.10
2019-01-14T17:29:13.294Z,5.20
2019-01-14T17:31:39.341Z,5.20
2019-01-14T17:34:05.302Z,5.30
2019-01-14T17:36:31.303Z,5.30
2019-01-14T17:38:57.299Z,5.30
2019-01-14T17:41:23.331Z,5.30
2019-01-14T17:43:49.358Z,5.20
2019-01-14T17:46:15.367Z,5.20
2019-01-14T17:48:41.357Z,5.30
2019-01-14T17:51:07.350Z,5.40
2019-01-14T17:53:33.354Z,5.40
2019-01-14T17:56:00.135Z,5.40
2019-01-14T17:58:26.136Z,5.40
2019-01-14T18:00:52.130Z,5.40
2019-01-14T18:03:18.170Z,5.50
2019-01-14T18:05:44.162Z,5.40
2019-01-14T18:08:10.143Z,5.50
2019-01-14T18:10:40.125Z,5.50
2019-01-14T18:13:02.157Z,5.50
2019-01-14T18:15:28.125Z,5.60
2019-01-14T18:17:54.186Z,5.60
2019-01-14T18:20:20.171Z,5.60
2019-01-14T18:22:46.154Z,5.70
2019-01-14T18:25:12.160Z,5.70
2019-01-14T18:27:38.163Z,5.70
2019-01-14T18:30:04.734Z,5.70
2019-01-14T18:32:30.780Z,5.70
2019-01-14T18:34:56.784Z,5.70
2019-01-14T18:37:23.764Z,5.60
2019-01-14T18:39:49.756Z,5.60
2019-01-14T18:42:16.486Z,5.60
2019-01-14T18:44:42.543Z,5.60
2019-01-14T18:47:09.294Z,5.50
2019-01-14T18:49:36.043Z,5.50
2019-01-14T18:52:02.815Z,5.50
2019-01-14T18:54:28.830Z,5.50
2019-01-14T18:56:54.871Z,5.50
2019-01-14T18:59:20.878Z,5.60
2019-01-14T19:01:46.935Z,5.50
2019-01-14T19:04:12.949Z,5.50
2019-01-14T19:06:38.963Z,5.60
2019-01-14T19:09:04.990Z,5.60
2019-01-14T19:11:30.980Z,5.60
2019-01-14T19:13:57.055Z,5.60
2019-01-14T19:16:23.165Z,5.60
2019-01-14T19:18:49.178Z,5.60
2019-01-14T19:21:15.325Z,5.60
2019-01-14T19:23:41.333Z,5.50
2019-01-14T19:26:07.319Z,5.40
2019-01-14T19:28:34.077Z,5.30
2019-01-14T19:31:00.058Z,5.30
2019-01-14T19:33:26.098Z,5.30
2019-01-14T19:35:52.852Z,5.20
2019-01-14T19:38:19.599Z,5.40
2019-01-14T19:40:52.743Z,5.30
2019-01-14T19:43:18.735Z,5.20
2019-01-14T19:45:49.779Z,5.10
2019-01-14T19:48:10.781Z,5.10
2019-01-14T19:50:36.809Z,5.10
2019-01-14T19:53:02.879Z,5.00
2019-01-14T19:55:28.855Z,5.10
2019-01-14T19:57:54.866Z,5.10
2019-01-14T20:00:20.875Z,5.20
2019-01-14T20:02:47.653Z,5.10
2019-01-14T20:05:13.675Z,5.10
2019-01-14T20:07:39.668Z,5.20
2019-01-14T20:10:06.439Z,5.20
2019-01-14T20:12:32.423Z,5.20
2019-01-14T20:14:59.207Z,5.20
2019-01-14T20:17:25.210Z,5.20
2019-01-14T20:19:51.227Z,5.20
2019-01-14T20:22:17.264Z,5.20
2019-01-14T20:24:43.256Z,5.10
2019-01-14T20:27:10.005Z,5.10
2019-01-14T20:29:36.735Z,5.10
2019-01-14T20:32:03.483Z,5.00
2019-01-14T20:34:30.246Z,5.10
2019-01-14T20:36:56.254Z,5.00
2019-01-14T20:39:23.015Z,5.00
2019-01-14T20:41:56.202Z,5.00
2019-01-14T20:44:22.240Z,5.10
2019-01-14T20:46:48.237Z,5.00
2019-01-14T20:49:14.303Z,5.00
2019-01-14T20:51:40.312Z,4.90
2019-01-14T20:54:06.364Z,4.90
2019-01-14T20:56:32.367Z,4.90
2019-01-14T20:58:58.347Z,4.90
2019-01-14T21:01:24.386Z,4.90
2019-01-14T21:03:50.459Z,4.90
2019-01-14T21:06:16.486Z,4.80
2019-01-14T21:08:42.500Z,4.80
2019-01-14T21:11:08.651Z,4.80
2019-01-14T21:13:34.651Z,4.80
2019-01-14T21:16:02.944Z,4.90
2019-01-14T21:18:26.682Z,4.90
2019-01-14T21:20:52.725Z,4.90
2019-01-14T21:23:19.524Z,4.90
2019-01-14T21:25:45.511Z,4.90
2019-01-14T21:28:11.539Z,5.00
2019-01-14T21:30:37.583Z,5.00
2019-01-14T21:33:04.326Z,5.10
2019-01-14T21:35:30.418Z,5.00
2019-01-14T21:37:56.457Z,5.10
2019-01-14T21:40:22.454Z,5.10
2019-01-14T21:42:48.608Z,5.10
2019-01-14T21:45:15.350Z,5.10
2019-01-14T21:47:42.091Z,5.00
2019-01-14T21:50:09.813Z,5.00
2019-01-14T21:52:36.495Z,5.10
2019-01-14T21:55:03.244Z,5.10
2019-01-14T21:57:30.030Z,5.10
2019-01-14T21:59:56.335Z,5.10
2019-01-14T22:02:22.190Z,5.10
2019-01-14T22:04:48.178Z,5.10
2019-01-14T22:07:14.361Z,5.20
2019-01-14T22:09:40.903Z,5.20
2019-01-14T22:12:06.903Z,5.20
2019-01-14T22:14:32.919Z,5.10
2019-01-14T22:16:58.939Z,5.10
2019-01-14T22:19:24.922Z,5.10
2019-01-14T22:21:51.667Z,5.10
2019-01-14T22:24:18.398Z,5.10
2019-01-14T22:26:44.482Z,5.10
2019-01-14T22:29:10.506Z,5.10
2019-01-14T22:31:37.242Z,5.10
2019-01-14T22:34:02.525Z,5.10
2019-01-14T22:36:28.537Z,5.10
2019-01-14T22:38:54.565Z,5.10
2019-01-14T22:41:20.627Z,5.20
2019-01-14T22:43:46.636Z,5.20
2019-01-14T22:46:12.606Z,5.30
2019-01-14T22:48:39.355Z,5.30
2019-01-14T22:51:06.118Z,5.30
2019-01-14T22:53:32.142Z,5.30
2019-01-14T22:55:58.147Z,5.30
2019-01-14T22:58:24.861Z,5.30
2019-01-14T23:00:58.844Z,5.30
2019-01-14T23:03:24.840Z,5.20
2019-01-14T23:05:57.726Z,5.20
2019-01-14T23:08:23.739Z,5.10
2019-01-14T23:10:50.848Z,5.10
2019-01-14T23:13:16.504Z,5.10
2019-01-14T23:15:42.493Z,5.10
2019-01-14T23:18:08.486Z,5.00
2019-01-14T23:20:34.486Z,5.10
2019-01-14T23:23:00.512Z,5.10
2019-01-14T23:25:26.518Z,5.10
2019-01-14T23:27:52.538Z,5.10
2019-01-14T23:30:19.278Z,5.10
2019-01-14T23:32:46.028Z,5.00
2019-01-14T23:35:12.033Z,5.00
2019-01-14T23:37:38.784Z,4.90
2019-01-14T23:40:04.796Z,4.90
2019-01-14T23:42:31.593Z,4.90
2019-01-14T23:44:57.613Z,4.90
2019-01-14T23:47:23.622Z,4.80
2019-01-14T23:49:49.783Z,4.80
2019-01-14T23:52:15.784Z,4.90
2019-01-14T23:54:41.815Z,4.80
2019-01-14T23:57:07.835Z,4.90
2019-01-14T23:59:33.834Z,4.80
